Latest Weather Observations for Julia Creek

IDQ60801

Issued at 9:35 am EST Friday 25 April 2014 (issued every 30 minutes, with the page automatically refreshed every 10 minutes)

About weather observations | Map of weather stations | Latest weather observations for QLD | Other Formats
Station Details ID: 029058 Name: JULIA CREEK AIRPORT Lat: -20.67 Lon: 141.72 Height: 122.5 m
Data from the previous 72 hours. | See also: Recent months at Julia Creek
Date/Time
EST
Temp
°C
App
Temp
°C
Dew
Point
Rel
Hum
%
Delta-T
°C
Wind Press
QNH
hPa
Press
MSL
hPa
Rain
since 9 am
mm
Dir
 
Spd
km/h
Gust
km/h
Spd
kts
Gust
kts
25/09:30am 28.5 29.5 18.6 55 6.4 ENE 11 15 6 8 1014.4 - 0.0
25/09:00am 28.3 29.6 18.4 55 6.4 E 9 15 5 8 1014.4 1013.7 0.0
25/08:30am 26.7 27.9 18.3 60 5.4 E 9 13 5 7 1014.0 - 0.0
25/08:00am 25.6 26.6 17.8 62 4.9 ESE 9 13 5 7 1013.8 1013.2 0.0
25/07:30am 24.7 25.5 17.4 64 4.6 SE 9 13 5 7 1013.3 - 0.0
25/07:00am 24.2 25.4 17.4 65 4.2 ESE 7 9 4 5 1012.9 1012.3 0.0
25/06:30am 24.4 25.6 16.9 63 4.6 E 6 7 3 4 1012.3 - 0.0
25/06:00am 24.7 25.9 16.9 62 4.8 E 6 7 3 4 1012.0 1011.4 0.0
25/05:30am 24.6 25.7 16.6 61 4.9 SE 6 9 3 5 1011.9 - 0.0
25/05:00am 24.9 25.9 16.3 59 5.3 ESE 6 7 3 4 1011.5 1010.9 0.0
25/04:30am 25.3 26.4 16.7 59 5.3 ENE 6 7 3 4 1011.3 - 0.0
25/04:00am 25.4 26.3 16.5 58 5.5 ESE 7 9 4 5 1011.2 1010.6 0.0
25/03:30am 26.2 26.9 17.0 57 5.7 E 9 13 5 7 1011.3 - 0.0
25/03:00am 26.6 26.6 17.1 56 6.0 E 13 19 7 10 1011.2 1010.6 0.0
25/02:30am 26.9 26.9 17.1 55 6.1 E 13 22 7 12 1011.1 - 0.0
25/02:00am 26.0 26.7 17.1 58 5.6 E 9 11 5 6 1011.4 1010.8 0.0
25/01:30am 25.6 26.4 17.3 60 5.2 ESE 9 11 5 6 1011.6 - 0.0
25/01:00am 25.4 26.5 17.1 60 5.2 ESE 7 7 4 4 1011.8 1011.2 0.0
25/12:30am 25.3 26.9 17.0 60 5.2 E 4 6 2 3 1012.1 - 0.0
25/12:00am 25.7 27.6 17.6 61 5.1 ENE 4 6 2 3 1012.1 1011.5 0.0
 
Date/Time
EST
Temp
°C
App
Temp
°C
Dew
Point
Rel
Hum
%
Delta-T
°C
Wind Press
QNH
hPa
Press
MSL
hPa
Rain
since 9 am
mm
Dir
 
Spd
km/h
Gust
km/h
Spd
kts
Gust
kts
24/11:30pm 26.5 27.4 17.6 58 5.6 E 9 11 5 6 1012.0 - 0.0
24/11:00pm 27.6 27.7 17.5 54 6.4 ENE 13 15 7 8 1012.4 1011.8 0.0
24/10:30pm 28.2 27.1 17.4 52 6.8 ESE 19 30 10 16 1012.4 - 0.0
24/10:00pm 27.7 26.0 18.1 56 6.1 ESE 24 30 13 16 1012.4 1011.8 0.0
24/09:30pm 28.1 25.9 17.9 54 6.5 E 26 32 14 17 1012.0 - 0.0
24/09:00pm 28.3 27.3 17.5 52 6.9 ENE 19 28 10 15 1012.2 1011.6 0.0
24/08:30pm 28.9 28.0 16.8 48 7.6 E 17 24 9 13 1011.9 - 0.0
24/08:00pm 28.9 28.7 16.8 48 7.6 SE 13 17 7 9 1011.3 1010.7 0.0
24/07:30pm 29.6 30.0 16.4 45 8.3 ESE 9 13 5 7 1010.8 - 0.0
24/07:00pm 30.6 30.7 15.5 40 9.4 E 9 13 5 7 1010.3 1009.6 0.0
24/06:30pm 30.7 31.3 15.9 40 9.2 ENE 7 11 4 6 1010.0 - 0.0
24/06:00pm 30.4 28.6 16.0 41 9.0 E 20 32 11 17 1009.8 1009.1 0.0
24/05:30pm 32.3 29.9 15.3 35 10.6 ESE 22 32 12 17 1009.4 - 0.0
24/05:00pm 32.5 29.6 15.1 35 10.8 SE 24 32 13 17 1009.2 1008.5 0.0
24/04:30pm 32.9 30.9 15.0 34 11.1 E 19 26 10 14 1009.1 - 0.0
24/04:00pm 33.0 30.4 15.0 33 11.2 ESE 22 30 12 16 1009.0 1008.3 0.0
24/03:30pm 33.0 30.6 15.5 35 10.9 ESE 22 32 12 17 1009.0 - 0.0
24/03:00pm 32.8 30.7 15.3 34 10.9 E 20 33 11 18 1009.3 1008.6 0.0
24/02:30pm 32.6 30.6 15.6 36 10.6 ESE 20 32 11 17 1009.7 - 0.0
24/02:00pm 32.8 30.9 15.8 36 10.7 ESE 20 33 11 18 1010.1 1009.4 0.0
24/01:30pm 33.6 32.2 16.9 37 10.7 E 20 32 11 17 1010.6 - 0.0
24/01:00pm 31.6 31.2 17.1 41 9.2 E 15 19 8 10 1011.2 1010.6 0.0
24/12:30pm 31.8 30.1 17.3 42 9.3 SE 22 33 12 18 1011.9 - 0.0
24/12:00pm 31.2 29.2 17.5 44 8.8 ESE 24 33 13 18 1012.5 1011.9 0.0
24/11:30am 30.1 28.7 16.9 45 8.3 SE 20 33 11 18 1013.0 - 0.0
24/11:00am 29.0 26.9 17.2 49 7.5 ESE 24 33 13 18 1013.5 1012.9 0.0
24/10:30am 27.9 26.5 17.1 51 6.8 SE 20 30 11 16 1014.0 - 0.0
24/10:00am 26.7 25.7 17.5 57 5.8 SE 19 26 10 14 1014.4 1013.7 0.0
24/09:30am 26.0 25.1 18.2 62 5.0 SE 20 26 11 14 1014.2 - 0.0
24/09:00am 25.0 24.4 17.5 63 4.7 ESE 17 20 9 11 1014.0 1013.3 0.0
24/08:30am 23.5 23.3 17.7 70 3.6 SE 15 19 8 10 1013.5 - 0.0
24/08:00am 22.4 22.9 17.5 74 3.0 SE 11 15 6 8 1013.2 1012.6 0.0
24/07:30am 21.2 21.8 16.8 76 2.7 SE 9 13 5 7 1012.9 - 0.0
24/07:00am 21.0 21.2 16.8 77 2.6 SSE 11 15 6 8 1012.6 1012.0 0.0
24/06:30am 21.0 21.8 17.2 79 2.3 SSE 9 13 5 7 1012.3 - 0.0
24/06:00am 21.0 21.8 17.4 80 2.2 SSE 9 13 5 7 1012.1 1011.5 0.0
24/05:30am 20.6 21.3 17.0 80 2.2 SSE 9 11 5 6 1012.0 - 0.0
24/05:00am 20.1 20.6 16.5 80 2.2 SSE 9 11 5 6 1011.9 1011.3 0.0
24/04:30am 19.9 20.5 15.7 77 2.5 SSE 7 9 4 5 1011.8 - 0.0
24/04:00am 20.0 20.8 15.8 77 2.5 SE 6 7 3 4 1011.7 1011.1 0.0
24/03:30am 19.7 20.1 15.4 76 2.6 SE 7 9 4 5 1012.0 - 0.0
24/03:00am 19.9 20.6 15.7 77 2.5 SE 6 7 3 4 1012.0 1011.4 0.0
24/02:30am 20.1 21.2 15.7 76 2.6 ESE 4 6 2 3 1012.3 - 0.0
24/02:00am 20.3 20.9 15.7 75 2.8 SE 7 9 4 5 1012.5 1011.9 0.0
24/01:30am 20.5 21.5 15.3 72 3.1 E 4 7 2 4 1012.9 - 0.0
24/01:00am 21.5 23.6 17.1 76 2.7 NE 2 4 1 2 1013.3 1012.7 0.0
24/12:30am 21.9 23.6 17.1 74 3.0 ENE 4 6 2 3 1013.6 - 0.0
24/12:00am 22.3 23.9 16.8 71 3.4 E 4 7 2 4 1013.8 1013.2 0.0
 
Date/Time
EST
Temp
°C
App
Temp
°C
Dew
Point
Rel
Hum
%
Delta-T
°C
Wind Press
QNH
hPa
Press
MSL
hPa
Rain
since 9 am
mm
Dir
 
Spd
km/h
Gust
km/h
Spd
kts
Gust
kts
23/11:30pm 23.1 24.9 17.3 70 3.6 ENE 4 6 2 3 1014.3 - 0.0
23/11:00pm 23.5 24.9 17.3 68 3.9 N 6 7 3 4 1014.2 1013.5 0.0
23/10:30pm 23.7 24.8 17.2 67 4.0 N 7 9 4 5 1014.2 - 0.0
23/10:00pm 23.7 25.4 17.2 67 4.0 N 4 7 2 4 1014.3 1013.6 0.0
23/09:30pm 23.8 24.1 17.1 66 4.2 NNE 11 17 6 9 1014.2 - 0.0
23/09:00pm 24.0 23.9 17.0 65 4.3 N 13 20 7 11 1014.3 1013.6 0.0
23/08:30pm 24.0 24.0 17.3 66 4.2 N 13 17 7 9 1014.1 - 0.0
23/08:00pm 24.1 23.8 17.4 66 4.2 NNE 15 20 8 11 1013.6 1013.0 0.0
23/07:30pm 24.6 23.8 18.1 67 4.1 N 19 26 10 14 1013.0 - 0.0
23/07:00pm 25.0 23.3 18.0 65 4.4 N 24 33 13 18 1012.8 1012.2 0.0
23/06:30pm 25.6 24.4 18.3 64 4.6 N 22 30 12 16 1012.6 - 0.0
23/06:00pm 26.0 23.9 18.9 65 4.6 N 28 37 15 20 1012.1 1011.5 0.0
23/05:30pm 26.9 25.5 18.7 60 5.3 N 24 37 13 20 1012.4 - 0.0
23/05:00pm 28.0 26.8 19.2 58 5.7 NNE 24 33 13 18 1012.0 1011.4 0.0
23/04:30pm 28.8 26.3 19.7 58 6.0 N 32 43 17 23 1011.1 - 0.0
23/04:03pm 30.6 28.2 18.3 47 7.9 NNE 28 41 15 22 1011.0 - 0.0
23/04:00pm 32.6 33.0 14.7 34 11.1 NE 6 19 3 10 1010.9 1010.3 0.0
23/03:30pm 32.6 33.7 14.7 34 11.1 NNE 2 6 1 3 1010.8 - 0.0
23/03:00pm 32.9 33.5 15.4 35 10.9 NE 6 11 3 6 1010.9 1010.3 0.0
23/02:30pm 34.1 35.2 15.5 32 11.7 E 4 11 2 6 1011.2 - 0.0
23/02:00pm 33.4 34.4 16.3 36 10.8 E 6 9 3 5 1011.7 1011.1 0.0
23/01:30pm 32.1 33.1 16.8 40 9.7 NNW 7 13 4 7 1012.1 - 0.0
23/01:00pm 31.6 32.5 17.5 43 9.0 ENE 9 17 5 9 1012.5 1011.9 0.0
23/12:30pm 31.7 33.1 17.9 43 8.9 S 7 11 4 6 1013.1 - 0.0
23/12:00pm 30.9 32.5 17.9 45 8.4 SSE 6 13 3 7 1013.8 1013.2 0.0
23/11:30am 30.0 31.0 17.8 48 7.8 E 9 15 5 8 1014.5 - 0.0
23/11:00am 29.0 30.7 18.1 51 7.0 SSE 6 11 3 6 1015.0 1014.3 0.0
23/10:30am 28.7 30.2 18.8 55 6.4 SE 9 15 5 8 1015.4 - 0.0
23/10:00am 27.8 29.0 19.1 59 5.6 ESE 11 17 6 9 1015.6 1014.9 0.0
23/09:30am 27.1 28.2 19.7 64 4.8 ESE 13 19 7 10 1015.5 - 0.0
23/09:00am 25.2 25.6 19.1 69 3.9 ESE 15 19 8 10 1015.4 1014.7 0.0
23/08:30am 24.4 25.2 19.0 72 3.5 ESE 13 17 7 9 1014.9 - 0.0
23/08:00am 22.2 22.9 18.0 77 2.6 ESE 11 15 6 8 1014.6 1013.9 0.0
23/07:30am 19.9 20.8 16.7 82 1.9 SE 7 9 4 5 1014.3 - 0.0
23/07:00am 18.4 18.7 15.1 81 1.9 SE 7 9 4 5 1013.8 1013.2 0.0
23/06:30am 19.2 20.1 16.2 83 1.8 E 6 7 3 4 1013.5 - 0.0
23/06:00am 19.4 20.2 16.4 83 1.8 ESE 7 9 4 5 1013.5 1012.9 0.0
23/05:30am 19.9 21.0 17.1 84 1.7 SE 7 9 4 5 1013.6 - 0.0
23/05:00am 19.9 20.5 16.9 83 1.8 SSE 9 11 5 6 1013.6 1013.0 0.0
23/04:30am 19.9 20.4 16.5 81 2.1 SSE 9 9 5 5 1013.6 - 0.0
23/04:00am 20.1 21.0 16.5 80 2.2 SSE 7 9 4 5 1013.5 1012.9 0.0
23/03:30am 20.0 20.9 16.6 81 2.1 SSE 7 9 4 5 1013.6 - 0.0
23/03:00am 19.3 19.6 16.0 81 2.0 SSE 9 9 5 5 1013.6 1013.0 0.0
23/02:30am 19.8 20.8 16.3 80 2.1 SE 6 6 3 3 1013.7 - 0.0
23/02:00am 19.9 21.7 16.5 81 2.1 ESE 2 4 1 2 1013.8 1013.2 0.0
23/01:30am 21.1 23.5 17.9 82 2.0 ENE 2 4 1 2 1014.0 - 0.0
23/01:00am 21.5 23.8 18.5 83 1.9 ENE 4 6 2 3 1014.4 1013.7 0.0
23/12:30am 21.9 23.7 18.3 80 2.3 NE 6 6 3 3 1014.7 - 0.0
23/12:00am 22.5 24.2 18.5 78 2.5 NE 7 13 4 7 1014.9 1014.2 0.0
 
Date/Time
EST
Temp
°C
App
Temp
°C
Dew
Point
Rel
Hum
%
Delta-T
°C
Wind Press
QNH
hPa
Press
MSL
hPa
Rain
since 9 am
mm
Dir
 
Spd
km/h
Gust
km/h
Spd
kts
Gust
kts
22/11:30pm 22.8 24.6 18.8 78 2.5 NE 7 9 4 5 1015.2 - 0.0
22/11:00pm 23.0 24.8 18.7 77 2.7 NNE 7 11 4 6 1015.2 1014.5 0.0
22/10:30pm 23.4 24.4 18.7 75 3.0 NNE 11 15 6 8 1015.0 - 0.0
22/10:00pm 23.9 24.7 19.0 74 3.1 NNE 13 20 7 11 1014.9 1014.2 0.0
22/09:30pm 24.2 25.3 18.8 72 3.4 NNE 11 17 6 9 1015.0 - 0.0
22/09:00pm 24.5 25.3 19.1 72 3.5 NNE 13 19 7 10 1014.6 1013.9 0.0
22/08:30pm 24.7 24.9 19.3 72 3.5 NNE 17 26 9 14 1014.3 - 0.0
22/08:00pm 25.2 24.8 19.3 70 3.8 N 20 28 11 15 1013.7 1013.1 0.0
22/07:30pm 25.8 25.2 19.7 69 4.0 N 22 33 12 18 1013.2 - 0.0
22/07:00pm 26.8 25.8 19.7 65 4.6 N 24 33 13 18 1012.7 1012.1 0.0
22/06:30pm 27.7 26.8 19.0 59 5.6 N 22 30 12 16 1012.6 - 0.0
22/06:00pm 28.6 27.5 18.7 55 6.4 N 22 30 12 16 1012.4 1011.8 0.0
22/05:30pm 29.8 28.1 18.9 52 7.1 N 26 35 14 19 1012.0 - 0.0
22/05:00pm 32.2 31.2 15.7 37 10.3 N 15 20 8 11 1011.5 1010.9 0.0
22/04:30pm 33.0 33.9 14.1 32 11.6 N 2 6 1 3 1011.4 - 0.0
22/04:00pm 33.8 34.0 14.8 32 11.8 ENE 7 11 4 6 1011.5 1010.9 0.0
22/03:30pm 33.5 34.4 14.0 30 12.0 W 2 7 1 4 1011.6 - 0.0
22/03:00pm 33.5 34.0 14.0 30 12.0 ESE 4 7 2 4 1011.8 1011.2 0.0
22/02:30pm 32.6 33.7 14.7 34 11.1 S 2 6 1 3 1012.2 - 0.0
22/02:00pm 32.1 32.5 14.7 35 10.7 SSW 6 11 3 6 1012.6 1012.0 0.0
22/01:30pm 32.1 33.6 14.7 35 10.7 CALM 0 4 0 2 1012.9 - 0.0
22/01:00pm 33.1 33.8 15.6 35 11.0 SSW 6 13 3 7 1013.6 1013.0 0.0
22/12:30pm 31.4 32.0 15.4 38 9.9 WSW 6 15 3 8 1014.3 - 0.0
22/12:00pm 32.5 33.5 16.8 39 10.0 ESE 7 15 4 8 1014.8 1014.1 0.0
22/11:30am 31.0 31.7 16.2 41 9.3 ENE 7 17 4 9 1015.5 - 0.0
22/11:00am 31.2 31.6 16.4 41 9.3 NNE 9 15 5 8 1016.1 1015.4 0.0
22/10:30am 30.4 30.5 16.4 43 8.8 NNE 11 19 6 10 1016.4 - 0.0
22/10:00am 29.5 29.5 16.3 45 8.2 NE 11 19 6 10 1016.4 1015.7 0.0

Other Formats:

Comma delimited format used in spreadsheet applications
http://www.bom.gov.au/fwo/IDQ60801/IDQ60801.94337.axf

JavaScript Object Notation format (JSON) in row-major order
http://www.bom.gov.au/fwo/IDQ60801/IDQ60801.94337.json